Time;durP1;ratioP1;P1;durP2;ratioP2;P2;SDS_P1;SDS_P2;PMS_P1;PMS_P2;Temp;Humidity;BMP_temperature;BMP_pressure;BME280_temperature;BME280_humidity;BME280_pressure;Samples;Min_cycle;Max_cycle;Signal;HPM_P1;HPM_P2
2023/01/08 00:02:06;;;;;;;2.83;1.70;;;11.00;90.90;;;;;;5118004;28;20030;-74
2023/01/08 00:04:32;;;;;;;3.85;2.13;;;11.10;90.80;;;;;;5118101;28;20039;-74
2023/01/08 00:06:57;;;;;;;3.42;2.10;;;11.00;90.80;;;;;;5117978;28;20034;-73
2023/01/08 00:09:23;;;;;;;4.00;1.98;;;11.00;90.80;;;;;;5117856;28;20046;-74
2023/01/08 00:11:49;;;;;;;5.03;2.42;;;11.00;90.70;;;;;;5134780;28;20085;-73
2023/01/08 00:14:14;;;;;;;4.20;2.00;;;11.00;90.70;;;;;;5134923;28;20027;-74
2023/01/08 00:16:40;;;;;;;4.32;2.70;;;11.00;90.70;;;;;;5134819;28;20062;-73
2023/01/08 00:19:05;;;;;;;4.00;2.13;;;11.00;90.80;;;;;;5134640;28;20038;-73
2023/01/08 00:21:31;;;;;;;2.70;1.88;;;11.00;90.70;;;;;;5117626;28;20031;-73
2023/01/08 00:23:57;;;;;;;4.43;2.15;;;10.90;90.70;;;;;;5134513;28;20158;-73
2023/01/08 00:26:22;;;;;;;3.42;2.03;;;10.90;90.70;;;;;;5134586;28;20047;-74
2023/01/08 00:28:48;;;;;;;6.38;2.53;;;10.90;90.80;;;;;;5134613;28;20478;-73
2023/01/08 00:31:13;;;;;;;4.65;2.15;;;11.00;90.70;;;;;;5117355;28;20110;-74
2023/01/08 00:33:40;;;;;;;5.55;2.38;;;11.00;90.60;;;;;;5135196;28;20048;-74
2023/01/08 00:36:11;;;;;;;3.05;1.90;;;11.00;90.50;;;;;;5134441;28;20020;-74
2023/01/08 00:38:37;;;;;;;5.20;2.10;;;11.00;90.60;;;;;;5117554;28;20136;-74
2023/01/08 00:41:03;;;;;;;5.13;2.60;;;11.00;90.50;;;;;;5135368;28;20087;-73
2023/01/08 00:43:29;;;;;;;3.35;1.67;;;11.00;90.50;;;;;;5135104;28;20051;-73
2023/01/08 00:45:55;;;;;;;5.30;2.30;;;11.10;90.40;;;;;;5117261;28;20020;-73
2023/01/08 00:48:21;;;;;;;3.83;2.05;;;11.00;90.40;;;;;;5134180;28;20383;-73
2023/01/08 00:50:51;;;;;;;4.10;1.88;;;11.10;90.40;;;;;;5135087;28;20458;-73
2023/01/08 00:53:17;;;;;;;4.28;2.30;;;11.10;90.40;;;;;;5134307;28;20027;-73
2023/01/08 00:55:43;;;;;;;4.15;2.38;;;11.10;90.40;;;;;;5133952;28;20043;-73
2023/01/08 00:58:09;;;;;;;3.58;1.80;;;11.10;90.40;;;;;;5133986;28;20035;-74
2023/01/08 01:00:35;;;;;;;3.83;1.88;;;11.10;90.40;;;;;;5134900;28;20075;-74
2023/01/08 01:03:00;;;;;;;3.33;1.48;;;11.10;90.30;;;;;;5099828;28;20053;-74
2023/01/08 01:05:26;;;;;;;3.92;2.00;;;11.00;90.40;;;;;;5134303;28;20027;-74
2023/01/08 01:07:52;;;;;;;4.80;2.05;;;11.00;90.40;;;;;;5116721;28;20094;-73
2023/01/08 01:10:18;;;;;;;5.72;2.30;;;11.10;90.50;;;;;;5134667;28;20023;-74
2023/01/08 01:12:44;;;;;;;3.40;1.95;;;11.00;90.40;;;;;;5116768;28;20027;-74
2023/01/08 01:15:12;;;;;;;4.00;2.00;;;11.00;90.40;;;;;;5133675;28;20036;-73
2023/01/08 01:17:40;;;;;;;5.13;1.73;;;11.00;90.40;;;;;;5133809;28;20023;-73
2023/01/08 01:20:08;;;;;;;3.33;2.08;;;11.00;90.50;;;;;;5133510;28;20038;-73
2023/01/08 01:22:34;;;;;;;5.75;2.13;;;11.00;90.60;;;;;;5133520;28;20039;-74
2023/01/08 01:24:59;;;;;;;4.85;1.75;;;11.00;90.60;;;;;;5116644;28;20087;-74
2023/01/08 01:27:25;;;;;;;7.13;2.03;;;11.00;90.60;;;;;;5133365;28;20016;-74
2023/01/08 01:29:51;;;;;;;3.30;1.88;;;11.10;90.50;;;;;;5133370;28;20026;-74
2023/01/08 01:32:17;;;;;;;3.95;1.85;;;11.00;90.50;;;;;;5116392;28;20053;-74
2023/01/08 01:34:43;;;;;;;3.70;2.17;;;11.00;90.60;;;;;;5116075;28;20047;-74
2023/01/08 01:37:12;;;;;;;5.78;2.20;;;11.00;90.50;;;;;;5134397;28;20020;-73
2023/01/08 01:39:38;;;;;;;3.03;1.70;;;11.00;90.50;;;;;;5133210;28;20027;-74
2023/01/08 01:42:04;;;;;;;3.80;1.67;;;11.00;90.60;;;;;;5133329;28;20034;-74
2023/01/08 01:44:38;;;;;;;3.63;1.90;;;11.00;90.50;;;;;;5133105;28;20024;-73
2023/01/08 01:47:22;;;;;;;5.25;1.77;;;11.00;90.50;;;;;;5134138;28;20110;-74
2023/01/08 01:49:55;;;;;;;3.65;2.17;;;11.10;90.60;;;;;;5134251;28;20040;-74
2023/01/08 01:52:21;;;;;;;3.20;1.95;;;11.00;90.60;;;;;;5133077;28;20027;-73
2023/01/08 01:54:49;;;;;;;3.83;1.83;;;11.00;90.60;;;;;;5116049;28;20031;-74
2023/01/08 01:57:15;;;;;;;3.90;2.10;;;11.00;90.50;;;;;;5134027;28;20028;-73
2023/01/08 01:59:41;;;;;;;5.88;2.17;;;11.00;90.60;;;;;;5115929;28;20100;-73
2023/01/08 02:02:07;;;;;;;6.80;2.15;;;11.00;90.60;;;;;;5134013;28;20016;-74
2023/01/08 02:04:33;;;;;;;2.92;1.63;;;11.00;90.50;;;;;;5133941;28;20032;-74
2023/01/08 02:07:15;;;;;;;5.68;2.05;;;11.10;90.60;;;;;;5133900;28;20027;-74
2023/01/08 02:09:58;;;;;;;6.63;2.60;;;11.10;90.50;;;;;;5133914;28;20075;-73
2023/01/08 02:12:32;;;;;;;5.13;1.80;;;11.10;90.60;;;;;;5132972;28;20459;-73
2023/01/08 02:15:12;;;;;;;9.85;2.00;;;11.00;90.60;;;;;;5132938;28;20024;-73
2023/01/08 02:18:01;;;;;;;2.33;1.20;;;11.00;91.50;;;;;;5135032;28;20083;-73
2023/01/08 02:20:32;;;;;;;2.45;1.20;;;10.90;91.00;;;;;;5138062;28;20027;-73
2023/01/08 02:23:07;;;;;;;3.70;1.00;;;10.80;90.30;;;;;;5137911;28;20042;-73
2023/01/08 02:25:52;;;;;;;2.17;0.95;;;10.70;89.40;;;;;;5136977;28;20280;-73
2023/01/08 02:28:18;;;;;;;2.40;0.75;;;10.40;90.30;;;;;;5137839;28;20038;-73
2023/01/08 02:30:45;;;;;;;1.17;0.50;;;10.30;90.40;;;;;;5137848;28;20024;-73
2023/01/08 02:33:11;;;;;;;0.73;0.60;;;10.20;91.00;;;;;;5136631;28;20095;-75
2023/01/08 02:35:50;;;;;;;1.15;0.47;;;10.10;90.80;;;;;;5136855;28;20024;-74
2023/01/08 02:38:17;;;;;;;2.13;0.43;;;10.00;90.90;;;;;;5136698;28;20028;-73
2023/01/08 02:41:08;;;;;;;1.55;0.55;;;9.90;90.90;;;;;;5119600;28;20055;-74
2023/01/08 02:43:46;;;;;;;2.38;0.70;;;9.90;91.10;;;;;;5128288;28;20047;-73
2023/01/08 02:46:16;;;;;;;3.50;0.60;;;9.90;91.40;;;;;;5137583;28;20020;-73
2023/01/08 02:48:55;;;;;;;2.28;0.65;;;9.80;91.60;;;;;;5136559;28;20068;-73
2023/01/08 02:51:32;;;;;;;0.57;0.30;;;9.80;91.40;;;;;;5136513;28;20024;-73
2023/01/08 02:54:02;;;;;;;0.90;0.45;;;9.70;91.80;;;;;;5137407;28;20032;-74
2023/01/08 02:56:36;;;;;;;3.60;0.43;;;9.70;91.60;;;;;;5136402;28;20087;-73
2023/01/08 02:59:05;;;;;;;3.17;0.45;;;9.70;91.50;;;;;;5136259;28;20023;-73
2023/01/08 03:01:33;;;;;;;2.55;0.60;;;9.70;91.70;;;;;;5137234;28;20457;-74
2023/01/08 03:04:05;;;;;;;1.20;0.63;;;9.70;91.80;;;;;;5136062;28;20027;-73
2023/01/08 03:06:31;;;;;;;0.52;0.30;;;9.60;91.90;;;;;;5136310;28;20048;-73
2023/01/08 03:08:58;;;;;;;1.85;0.73;;;9.60;92.60;;;;;;5102223;28;20056;-73
2023/01/08 03:11:33;;;;;;;1.55;0.40;;;9.60;92.40;;;;;;5136003;28;20048;-73
2023/01/08 03:14:19;;;;;;;3.95;0.45;;;9.50;92.70;;;;;;5136028;28;20020;-73
2023/01/08 03:17:13;;;;;;;2.50;0.38;;;9.50;92.80;;;;;;5137165;28;20148;-73
2023/01/08 03:19:52;;;;;;;1.00;0.50;;;9.50;92.90;;;;;;5135897;28;20020;-73
2023/01/08 03:22:20;;;;;;;2.15;0.50;;;9.50;92.90;;;;;;5136813;28;20019;-73
2023/01/08 03:24:49;;;;;;;1.23;0.50;;;9.50;92.80;;;;;;5136833;28;20079;-73
2023/01/08 03:27:24;;;;;;;4.45;0.80;;;9.50;92.90;;;;;;5136793;28;20034;-73
2023/01/08 03:29:53;;;;;;;2.97;0.40;;;9.50;92.90;;;;;;5136277;28;20015;-73
2023/01/08 03:32:20;;;;;;;1.08;0.40;;;9.50;92.80;;;;;;5136636;28;20026;-73
2023/01/08 03:34:49;;;;;;;3.75;0.40;;;9.50;92.80;;;;;;5118649;28;20104;-73
2023/01/08 03:37:18;;;;;;;2.00;0.50;;;9.60;92.90;;;;;;5135599;28;20016;-73
2023/01/08 03:40:07;;;;;;;0.55;0.20;;;9.50;92.70;;;;;;5135476;28;20016;-74
2023/01/08 03:42:33;;;;;;;0.90;0.50;;;9.60;92.80;;;;;;5135669;28;20032;-73
2023/01/08 03:44:59;;;;;;;0.93;0.40;;;9.60;92.80;;;;;;5118363;28;20028;-73
2023/01/08 03:47:28;;;;;;;2.78;0.75;;;9.60;92.80;;;;;;5135446;28;20035;-73
2023/01/08 03:49:55;;;;;;;1.13;0.40;;;9.60;92.70;;;;;;5136317;28;20116;-73
2023/01/08 03:52:26;;;;;;;0.57;0.30;;;9.60;92.80;;;;;;5118274;28;20020;-73
2023/01/08 03:54:51;;;;;;;0.90;0.30;;;9.60;92.80;;;;;;5136228;28;20023;-73
2023/01/08 03:57:17;;;;;;;0.63;0.50;;;9.60;92.80;;;;;;5136154;28;20118;-73
2023/01/08 03:59:43;;;;;;;1.83;0.55;;;9.60;92.70;;;;;;5135101;28;20019;-74
2023/01/08 04:02:08;;;;;;;2.60;0.60;;;9.60;92.80;;;;;;5118187;28;20024;-73
2023/01/08 04:04:34;;;;;;;2.30;0.20;;;9.60;92.80;;;;;;5118001;28;20064;-73
2023/01/08 04:07:00;;;;;;;3.35;0.75;;;9.60;93.20;;;;;;5134946;28;20035;-73
2023/01/08 04:09:25;;;;;;;3.55;0.85;;;9.60;92.80;;;;;;5135859;28;20053;-74
2023/01/08 04:11:51;;;;;;;5.18;0.68;;;9.60;92.90;;;;;;5135998;28;20020;-74
2023/01/08 04:14:17;;;;;;;1.20;0.47;;;9.50;92.90;;;;;;5134876;28;20024;-73
2023/01/08 04:16:43;;;;;;;2.88;0.57;;;9.60;92.90;;;;;;5134859;28;20024;-73
2023/01/08 04:19:12;;;;;;;0.88;0.40;;;9.60;93.00;;;;;;5134756;28;20107;-73
2023/01/08 04:21:38;;;;;;;3.45;0.50;;;9.60;92.90;;;;;;5117736;28;20031;-74
2023/01/08 04:24:04;;;;;;;0.70;0.35;;;9.60;92.90;;;;;;5117568;28;20032;-74
2023/01/08 04:26:30;;;;;;;1.55;0.55;;;9.60;92.80;;;;;;5117458;28;20028;-74
2023/01/08 04:28:56;;;;;;;1.52;0.30;;;9.60;92.70;;;;;;5135574;28;20079;-74
2023/01/08 04:31:22;;;;;;;2.88;0.50;;;9.60;92.70;;;;;;5117566;28;20045;-74
2023/01/08 04:33:47;;;;;;;1.30;0.40;;;9.60;92.60;;;;;;5135273;28;20056;-74
2023/01/08 04:36:14;;;;;;;2.55;0.50;;;9.70;92.50;;;;;;5134459;28;20028;-74
2023/01/08 04:38:39;;;;;;;3.78;0.73;;;9.70;92.50;;;;;;5134396;28;20023;-74
2023/01/08 04:41:05;;;;;;;4.43;0.60;;;9.60;92.50;;;;;;5133420;28;20386;-74
2023/01/08 04:43:31;;;;;;;1.75;0.60;;;9.70;92.30;;;;;;5134165;28;20038;-74
2023/01/08 04:45:58;;;;;;;3.40;0.55;;;9.60;92.40;;;;;;5134215;28;20035;-74
2023/01/08 04:48:24;;;;;;;2.60;0.45;;;9.60;92.50;;;;;;5134290;28;20024;-74
2023/01/08 04:50:50;;;;;;;1.05;0.50;;;9.60;92.60;;;;;;5135129;28;20099;-74
2023/01/08 04:53:16;;;;;;;1.90;0.60;;;9.60;92.60;;;;;;5135189;28;20034;-74
2023/01/08 04:55:41;;;;;;;3.20;0.70;;;9.60;92.60;;;;;;5133962;28;20072;-74
2023/01/08 04:58:07;;;;;;;4.97;1.00;;;9.60;92.70;;;;;;5134037;28;20079;-74
2023/01/08 05:00:34;;;;;;;1.02;0.70;;;9.60;92.70;;;;;;5133975;28;20024;-74
2023/01/08 05:02:59;;;;;;;5.45;1.48;;;9.60;92.80;;;;;;5133792;28;20035;-74
2023/01/08 05:05:25;;;;;;;3.95;1.00;;;9.60;92.90;;;;;;5133778;28;20024;-74
2023/01/08 05:07:51;;;;;;;1.73;0.73;;;9.60;93.00;;;;;;5133798;28;20030;-74
2023/01/08 05:10:17;;;;;;;1.00;0.63;;;9.60;92.70;;;;;;5133857;28;20024;-74
2023/01/08 05:12:42;;;;;;;1.98;0.80;;;9.60;92.60;;;;;;5134704;28;20020;-74
2023/01/08 05:15:09;;;;;;;1.65;0.60;;;9.60;91.90;;;;;;5133724;28;20035;-74
2023/01/08 05:17:34;;;;;;;0.90;0.60;;;9.70;91.80;;;;;;5133552;28;20042;-73
2023/01/08 05:20:00;;;;;;;1.88;0.28;;;9.70;91.00;;;;;;5116611;28;20055;-74
2023/01/08 05:22:26;;;;;;;0.15;0.10;;;9.70;90.50;;;;;;5116532;28;20020;-74
2023/01/08 05:24:51;;;;;;;1.55;0.43;;;9.70;90.10;;;;;;5133600;28;20478;-74
2023/01/08 05:27:17;;;;;;;0.30;0.30;;;9.70;90.20;;;;;;5134518;28;20031;-74
2023/01/08 05:29:42;;;;;;;1.73;0.30;;;9.70;90.60;;;;;;5116349;28;20058;-74
2023/01/08 05:32:16;;;;;;;0.70;0.47;;;9.60;91.10;;;;;;5116355;28;20024;-74
2023/01/08 05:34:43;;;;;;;2.08;0.70;;;9.70;91.60;;;;;;5134188;28;20055;-74
2023/01/08 05:37:09;;;;;;;2.35;0.77;;;9.60;91.90;;;;;;5134296;28;20028;-74
2023/01/08 05:39:35;;;;;;;0.70;0.60;;;9.60;92.10;;;;;;5133247;28;20402;-74
2023/01/08 05:42:01;;;;;;;3.05;0.98;;;9.60;92.40;;;;;;5133334;28;20024;-74
2023/01/08 05:44:27;;;;;;;2.40;0.75;;;9.60;92.70;;;;;;5116127;28;20028;-74
2023/01/08 05:46:53;;;;;;;2.25;1.00;;;9.60;92.70;;;;;;5133276;28;20065;-74
2023/01/08 05:49:20;;;;;;;0.65;0.52;;;9.60;92.70;;;;;;5134284;28;20038;-74
2023/01/08 05:51:46;;;;;;;1.98;0.95;;;9.60;92.50;;;;;;5116573;28;20030;-74
2023/01/08 05:54:12;;;;;;;3.05;1.30;;;9.70;92.20;;;;;;5134090;28;20047;-74
2023/01/08 05:56:37;;;;;;;7.40;0.95;;;9.70;91.90;;;;;;5116001;28;20099;-74
2023/01/08 05:59:03;;;;;;;3.35;1.20;;;9.70;91.70;;;;;;5116015;28;20110;-74
2023/01/08 06:01:29;;;;;;;3.05;1.05;;;9.70;91.60;;;;;;5134022;28;20044;-74
2023/01/08 06:03:55;;;;;;;3.83;1.08;;;9.70;91.40;;;;;;5099018;28;20028;-74
2023/01/08 06:06:21;;;;;;;1.90;1.00;;;9.70;91.40;;;;;;5133959;28;20024;-74
2023/01/08 06:08:46;;;;;;;1.30;0.70;;;9.70;91.40;;;;;;5133882;28;20022;-74
2023/01/08 06:11:12;;;;;;;1.23;0.52;;;9.70;91.30;;;;;;5133861;28;20031;-74
2023/01/08 06:13:41;;;;;;;3.08;1.13;;;9.70;91.10;;;;;;5115829;28;20032;-74
2023/01/08 06:16:07;;;;;;;2.58;0.90;;;9.70;91.00;;;;;;5133868;28;20045;-74
2023/01/08 06:18:33;;;;;;;1.05;0.70;;;9.70;90.80;;;;;;5115925;28;20027;-74
2023/01/08 06:20:59;;;;;;;1.77;0.93;;;9.70;90.60;;;;;;5115806;28;20107;-74
2023/01/08 06:23:25;;;;;;;1.45;0.52;;;9.60;90.50;;;;;;5115773;28;20058;-74
2023/01/08 06:25:52;;;;;;;1.63;0.47;;;9.60;90.20;;;;;;5133765;28;20459;-74
2023/01/08 06:28:18;;;;;;;3.10;0.77;;;9.60;90.10;;;;;;5132778;28;20474;-74
2023/01/08 06:30:44;;;;;;;2.33;0.60;;;9.50;90.10;;;;;;5132716;28;20034;-74
2023/01/08 06:33:09;;;;;;;1.48;0.60;;;9.50;90.10;;;;;;5132646;28;20088;-75
2023/01/08 06:35:35;;;;;;;2.08;1.10;;;9.40;90.20;;;;;;5132742;28;20051;-74
2023/01/08 06:38:00;;;;;;;1.90;0.80;;;9.40;90.00;;;;;;5132646;28;20036;-74
2023/01/08 06:40:26;;;;;;;1.48;0.60;;;9.30;89.60;;;;;;5115590;28;20032;-74
2023/01/08 06:42:52;;;;;;;0.90;0.63;;;9.30;89.60;;;;;;5115631;28;20027;-74
2023/01/08 06:45:17;;;;;;;1.45;0.63;;;9.30;89.50;;;;;;5132686;28;20036;-74
2023/01/08 06:47:43;;;;;;;1.63;0.68;;;9.20;89.20;;;;;;5132690;28;20024;-74
2023/01/08 06:50:09;;;;;;;2.20;0.60;;;9.20;88.80;;;;;;5115648;28;20027;-74
2023/01/08 06:52:34;;;;;;;5.03;1.08;;;9.10;88.80;;;;;;5132681;28;20024;-74
2023/01/08 06:55:00;;;;;;;3.60;0.60;;;9.10;88.40;;;;;;5098751;28;20020;-74
2023/01/08 06:57:25;;;;;;;4.15;0.63;;;9.10;88.50;;;;;;5132463;28;20077;-74
2023/01/08 06:59:51;;;;;;;1.63;0.55;;;9.00;87.90;;;;;;5132524;28;20027;-75
2023/01/08 07:02:18;;;;;;;1.85;0.63;;;9.00;87.80;;;;;;5132618;28;20031;-74
2023/01/08 07:04:43;;;;;;;2.83;0.60;;;8.90;87.70;;;;;;5136065;28;20019;-74
2023/01/08 07:07:13;;;;;;;0.40;0.32;;;8.90;87.50;;;;;;5137284;28;20027;-74
2023/01/08 07:09:40;;;;;;;1.98;0.57;;;8.90;87.50;;;;;;5135949;28;20041;-74
2023/01/08 07:12:09;;;;;;;1.25;0.57;;;8.80;87.30;;;;;;5137056;28;20019;-74
2023/01/08 07:14:35;;;;;;;1.85;0.57;;;8.90;87.20;;;;;;5137032;28;20095;-74
2023/01/08 07:17:01;;;;;;;3.70;0.50;;;8.80;87.20;;;;;;5135938;28;20031;-74
2023/01/08 07:19:26;;;;;;;1.63;0.30;;;8.80;87.20;;;;;;5136924;28;20035;-74
2023/01/08 07:21:52;;;;;;;2.83;0.43;;;8.80;87.20;;;;;;5118827;28;20069;-74
2023/01/08 07:24:17;;;;;;;2.50;0.43;;;8.80;87.10;;;;;;5135857;28;20039;-74
2023/01/08 07:26:43;;;;;;;3.63;0.40;;;8.80;87.40;;;;;;5118810;28;20027;-74
2023/01/08 07:29:08;;;;;;;2.08;0.40;;;8.70;87.30;;;;;;5101858;28;20026;-74
2023/01/08 07:31:34;;;;;;;2.72;0.70;;;8.70;87.50;;;;;;5118749;28;20034;-74
2023/01/08 07:34:00;;;;;;;1.63;0.80;;;8.70;87.40;;;;;;5135464;28;20056;-74
2023/01/08 07:36:25;;;;;;;1.45;0.50;;;8.70;87.70;;;;;;5136619;28;20047;-74
2023/01/08 07:38:51;;;;;;;2.28;0.45;;;8.70;87.90;;;;;;5135494;28;20039;-74
2023/01/08 07:41:17;;;;;;;2.90;0.73;;;8.60;88.00;;;;;;5135612;28;20027;-74
2023/01/08 07:43:43;;;;;;;1.73;0.60;;;8.70;87.90;;;;;;5135521;28;20064;-74
2023/01/08 07:46:09;;;;;;;1.13;0.50;;;8.60;88.10;;;;;;5118362;28;20038;-74
2023/01/08 07:48:34;;;;;;;2.10;0.20;;;8.50;88.10;;;;;;5135504;28;20079;-74
2023/01/08 07:51:05;;;;;;;1.35;0.20;;;8.50;88.20;;;;;;5135378;28;20016;-74
2023/01/08 07:53:31;;;;;;;2.83;0.30;;;8.50;88.30;;;;;;5135240;28;20038;-75
2023/01/08 07:56:01;;;;;;;1.20;0.43;;;8.50;88.40;;;;;;5135238;28;20024;-74
2023/01/08 07:58:27;;;;;;;3.13;0.40;;;8.50;88.50;;;;;;5135275;28;20051;-74
2023/01/08 08:00:53;;;;;;;2.08;0.40;;;8.40;89.30;;;;;;5135026;28;20050;-75
2023/01/08 08:03:19;;;;;;;1.55;0.40;;;8.40;88.40;;;;;;5117988;28;20027;-75
2023/01/08 08:05:44;;;;;;;3.15;0.38;;;8.40;88.70;;;;;;5135858;28;20478;-76
2023/01/08 08:08:11;;;;;;;3.90;0.60;;;8.40;88.70;;;;;;5117990;28;20016;-75
2023/01/08 08:10:38;;;;;;;2.92;0.63;;;8.30;88.70;;;;;;5117909;28;20028;-76
2023/01/08 08:13:04;;;;;;;4.50;0.35;;;8.20;88.90;;;;;;5135846;28;20024;-76
2023/01/08 08:15:29;;;;;;;1.83;0.28;;;8.30;89.20;;;;;;5133655;28;20032;-75
2023/01/08 08:17:55;;;;;;;1.77;0.30;;;8.20;89.20;;;;;;5117695;28;20028;-74
2023/01/08 08:20:21;;;;;;;4.47;0.60;;;8.20;89.40;;;;;;5134662;28;20103;-74
2023/01/08 08:22:46;;;;;;;1.50;0.50;;;8.20;89.50;;;;;;5117718;28;20031;-75
2023/01/08 08:25:15;;;;;;;2.95;0.98;;;8.20;89.70;;;;;;5134686;28;20028;-74
2023/01/08 08:27:42;;;;;;;3.17;0.52;;;8.20;90.00;;;;;;5135614;28;20019;-75
2023/01/08 08:30:09;;;;;;;2.80;0.50;;;8.20;89.90;;;;;;5135518;28;20058;-75
2023/01/08 08:32:35;;;;;;;2.78;0.43;;;8.30;90.10;;;;;;5134405;28;20019;-74
2023/01/08 08:35:02;;;;;;;1.20;0.30;;;8.30;90.00;;;;;;5135283;28;20073;-74
2023/01/08 08:37:27;;;;;;;5.05;0.55;;;8.30;90.20;;;;;;5134476;28;20027;-74
2023/01/08 08:39:54;;;;;;;5.13;1.00;;;8.30;90.20;;;;;;5117275;28;20031;-74
2023/01/08 08:42:20;;;;;;;3.40;0.70;;;8.30;90.20;;;;;;5117344;28;20039;-74
2023/01/08 08:44:45;;;;;;;0.90;0.50;;;8.40;90.20;;;;;;5135252;28;20027;-74
2023/01/08 08:47:11;;;;;;;2.95;0.47;;;8.50;90.30;;;;;;5117327;28;20044;-74
2023/01/08 08:49:36;;;;;;;4.88;1.00;;;8.60;90.20;;;;;;5135115;28;20549;-74
2023/01/08 08:52:03;;;;;;;4.20;0.77;;;8.70;90.30;;;;;;5135086;28;20039;-74
2023/01/08 08:54:29;;;;;;;6.97;1.30;;;8.80;90.10;;;;;;5135057;28;20019;-74
2023/01/08 08:56:54;;;;;;;5.50;0.82;;;8.90;90.00;;;;;;5133997;28;20027;-75
2023/01/08 08:59:20;;;;;;;4.93;1.15;;;9.10;89.50;;;;;;5134047;28;20020;-75
2023/01/08 09:01:46;;;;;;;3.88;0.55;;;9.40;88.30;;;;;;5133927;28;20027;-75
2023/01/08 09:04:11;;;;;;;2.97;0.50;;;9.60;87.70;;;;;;5133788;28;20046;-75
2023/01/08 09:06:37;;;;;;;5.18;0.65;;;9.70;86.80;;;;;;5133885;28;20467;-74
2023/01/08 09:09:02;;;;;;;3.25;0.77;;;9.60;86.30;;;;;;5134686;28;20091;-75
2023/01/08 09:11:28;;;;;;;5.55;0.88;;;9.30;86.60;;;;;;5134706;28;20063;-74
2023/01/08 09:13:54;;;;;;;4.82;1.25;;;9.20;87.60;;;;;;5116664;28;20095;-74
2023/01/08 09:16:19;;;;;;;4.32;0.60;;;9.10;87.90;;;;;;5116624;28;20027;-74
2023/01/08 09:18:45;;;;;;;3.38;0.60;;;9.00;88.20;;;;;;5116585;28;20024;-74
2023/01/08 09:21:11;;;;;;;3.30;0.70;;;9.00;88.70;;;;;;5133785;28;20030;-74
2023/01/08 09:23:37;;;;;;;2.63;0.40;;;9.00;88.90;;;;;;5099674;28;20051;-75
2023/01/08 09:26:04;;;;;;;3.13;1.15;;;9.00;88.90;;;;;;5133049;28;20027;-75
2023/01/08 09:28:31;;;;;;;3.58;0.70;;;9.00;88.90;;;;;;5133427;28;20023;-76
2023/01/08 09:31:03;;;;;;;6.30;1.27;;;9.00;89.10;;;;;;5133462;28;20045;-75
2023/01/08 09:33:29;;;;;;;4.30;0.75;;;8.90;89.40;;;;;;5134295;28;20061;-76
2023/01/08 09:35:55;;;;;;;2.83;0.63;;;8.90;89.70;;;;;;5133413;28;20020;-76
2023/01/08 09:38:21;;;;;;;2.97;0.85;;;8.90;90.40;;;;;;5133389;28;20024;-76
2023/01/08 09:41:00;;;;;;;4.68;0.93;;;8.90;90.00;;;;;;5116204;28;20051;-76
2023/01/08 09:43:29;;;;;;;2.90;0.73;;;8.90;90.20;;;;;;5133247;28;20043;-76
2023/01/08 09:45:59;;;;;;;1.85;0.20;;;8.90;90.40;;;;;;5134215;28;20079;-75
2023/01/08 09:48:30;;;;;;;3.67;0.93;;;8.90;90.40;;;;;;5134077;28;20027;-76
2023/01/08 09:50:56;;;;;;;9.15;1.38;;;8.90;90.60;;;;;;5133124;28;20027;-76
2023/01/08 09:53:23;;;;;;;7.68;1.10;;;8.90;90.60;;;;;;5133096;28;20024;-76
2023/01/08 09:55:55;;;;;;;1.52;0.43;;;8.90;90.60;;;;;;5134042;28;20034;-76
2023/01/08 09:58:32;;;;;;;5.53;0.80;;;9.00;90.80;;;;;;5133139;28;20027;-76
2023/01/08 10:01:00;;;;;;;3.05;0.73;;;8.90;90.80;;;;;;5134068;28;20026;-76
2023/01/08 10:03:30;;;;;;;5.60;1.25;;;9.00;90.90;;;;;;5132901;28;20089;-76
2023/01/08 10:05:56;;;;;;;2.33;1.00;;;9.00;91.00;;;;;;5133050;28;20072;-76
2023/01/08 10:08:22;;;;;;;6.25;0.90;;;9.00;90.90;;;;;;5099002;28;20040;-76
2023/01/08 10:10:47;;;;;;;5.28;1.05;;;9.00;90.90;;;;;;5115952;28;20038;-76
2023/01/08 10:13:14;;;;;;;5.53;0.95;;;9.10;91.10;;;;;;5115903;28;20027;-76
2023/01/08 10:15:40;;;;;;;6.07;1.10;;;9.00;91.20;;;;;;5133850;28;20031;-76
2023/01/08 10:18:13;;;;;;;5.45;1.60;;;9.10;91.10;;;;;;5133846;28;20020;-76
2023/01/08 10:20:39;;;;;;;1.20;0.45;;;9.10;91.10;;;;;;5133005;28;20035;-76
2023/01/08 10:23:14;;;;;;;4.72;1.02;;;9.10;91.20;;;;;;5132813;28;20034;-76
2023/01/08 10:26:00;;;;;;;4.63;1.25;;;9.10;91.20;;;;;;5133836;28;20024;-76
2023/01/08 10:28:28;;;;;;;2.33;0.95;;;9.20;91.30;;;;;;5132747;28;20035;-76
2023/01/08 10:31:02;;;;;;;0.85;0.52;;;9.20;91.40;;;;;;5133765;28;20024;-76
2023/01/08 10:33:45;;;;;;;8.25;1.13;;;9.20;91.40;;;;;;5132746;28;20079;-77
2023/01/08 10:36:17;;;;;;;3.72;0.90;;;9.20;91.30;;;;;;5132831;28;20031;-76
2023/01/08 10:38:52;;;;;;;8.10;1.45;;;9.30;91.60;;;;;;5133895;28;20049;-76
2023/01/08 10:41:18;;;;;;;2.80;0.82;;;9.30;91.50;;;;;;5136699;28;20035;-76
2023/01/08 10:44:03;;;;;;;5.72;0.82;;;9.30;91.40;;;;;;5137671;28;20027;-76
2023/01/08 10:46:43;;;;;;;6.72;1.40;;;9.30;91.40;;;;;;5136473;28;20028;-76
2023/01/08 10:49:21;;;;;;;3.17;0.85;;;9.40;91.50;;;;;;5137607;27;20092;-76
2023/01/08 10:51:52;;;;;;;2.80;0.52;;;9.50;91.50;;;;;;5137546;28;20016;-76
2023/01/08 10:54:38;;;;;;;2.20;0.80;;;9.50;91.10;;;;;;5119356;28;20095;-76
2023/01/08 10:57:28;;;;;;;2.10;0.50;;;9.50;91.40;;;;;;5136424;28;20015;-76
2023/01/08 10:59:55;;;;;;;3.53;0.60;;;9.50;91.40;;;;;;5137415;28;20023;-76
2023/01/08 11:02:35;;;;;;;0.47;0.40;;;9.50;91.80;;;;;;5137287;28;20098;-76
2023/01/08 11:05:04;;;;;;;1.35;0.30;;;9.50;91.00;;;;;;5136339;28;20091;-75
2023/01/08 11:07:34;;;;;;;4.97;0.90;;;9.50;91.00;;;;;;5119426;28;20015;-76
2023/01/08 11:10:00;;;;;;;1.80;0.55;;;9.50;91.30;;;;;;5119669;28;20012;-76
2023/01/08 11:12:38;;;;;;;2.72;0.50;;;9.50;91.40;;;;;;5135996;28;20040;-76
2023/01/08 11:15:22;;;;;;;3.63;0.50;;;9.60;91.00;;;;;;5136181;28;20024;-76
2023/01/08 11:17:48;;;;;;;1.05;0.45;;;9.70;91.20;;;;;;5136004;28;20019;-75
2023/01/08 11:20:29;;;;;;;0.50;0.40;;;9.80;91.00;;;;;;5136065;28;20032;-76
2023/01/08 11:23:26;;;;;;;0.93;0.20;;;9.90;91.40;;;;;;5135841;28;20016;-76
2023/01/08 11:26:10;;;;;;;1.50;0.55;;;10.10;90.20;;;;;;5136923;28;20019;-76
2023/01/08 11:28:56;;;;;;;2.25;0.32;;;10.20;90.60;;;;;;5135859;28;20020;-75
2023/01/08 11:31:48;;;;;;;1.23;0.40;;;10.30;89.60;;;;;;5136892;28;20492;-76
2023/01/08 11:34:21;;;;;;;1.08;0.40;;;10.30;89.60;;;;;;5135615;28;20039;-75
2023/01/08 11:36:53;;;;;;;1.95;0.30;;;10.30;90.00;;;;;;5135594;28;20024;-76
2023/01/08 11:39:18;;;;;;;;;;;10.40;89.90;;;;;;5136017;28;20030;-76
2023/01/08 11:42:04;;;;;;;0.30;0.20;;;10.40;88.40;;;;;;5136395;28;19946;-76
2023/01/08 11:44:53;;;;;;;0.73;0.20;;;10.40;88.80;;;;;;5135385;28;20051;-76
2023/01/08 11:47:43;;;;;;;1.83;0.50;;;10.40;88.40;;;;;;5136393;28;20024;-76
2023/01/08 11:50:27;;;;;;;1.95;0.82;;;10.50;88.80;;;;;;5136041;28;20039;-76
2023/01/08 11:53:17;;;;;;;1.58;0.50;;;10.60;87.50;;;;;;5135294;28;20035;-75
2023/01/08 11:56:12;;;;;;;1.27;0.30;;;10.60;87.30;;;;;;5135314;28;20028;-76
2023/01/08 11:59:04;;;;;;;0.95;0.20;;;10.60;86.40;;;;;;5132085;28;20073;-76
2023/01/08 12:01:36;;;;;;;1.17;0.25;;;10.60;86.30;;;;;;5136207;28;20023;-76
2023/01/08 12:04:16;;;;;;;1.27;0.30;;;10.60;86.00;;;;;;5136205;28;20039;-76
2023/01/08 12:07:04;;;;;;;1.13;0.35;;;10.50;86.00;;;;;;5135085;28;20016;-76
2023/01/08 12:09:50;;;;;;;0.45;0.32;;;10.50;87.30;;;;;;5135028;28;20107;-76
2023/01/08 12:12:42;;;;;;;1.63;0.40;;;10.50;87.10;;;;;;5134417;28;20028;-76
2023/01/08 12:15:33;;;;;;;3.83;0.45;;;10.40;87.60;;;;;;5135903;28;20031;-76
2023/01/08 12:18:33;;;;;;;1.67;0.38;;;10.40;87.50;;;;;;5135989;28;20057;-76
2023/01/08 12:21:11;;;;;;;1.45;0.32;;;10.40;86.30;;;;;;5134816;28;20034;-76
2023/01/08 12:24:06;;;;;;;1.92;0.82;;;10.30;87.40;;;;;;5134680;28;20016;-76
2023/01/08 12:26:40;;;;;;;0.22;0.20;;;10.40;87.90;;;;;;5095977;28;20057;-76
2023/01/08 12:29:39;;;;;;;2.20;0.40;;;10.50;87.10;;;;;;5134654;28;20022;-76
2023/01/08 12:32:10;;;;;;;1.05;0.63;;;10.50;86.50;;;;;;5134563;28;20475;-76
2023/01/08 12:34:48;;;;;;;1.73;0.60;;;10.70;86.80;;;;;;5135401;28;20051;-76
2023/01/08 12:37:20;;;;;;;0.82;0.60;;;11.00;86.40;;;;;;5135618;28;20024;-76
2023/01/08 12:40:05;;;;;;;3.03;0.80;;;11.40;84.40;;;;;;5134488;28;20039;-76
2023/01/08 12:42:33;;;;;;;0.82;0.60;;;11.70;83.20;;;;;;5135412;28;20020;-76
2023/01/08 12:45:02;;;;;;;3.65;0.90;;;11.90;81.50;;;;;;5134156;28;20019;-76
2023/01/08 12:47:31;;;;;;;3.03;1.10;;;12.20;79.80;;;;;;5134180;28;20031;-77
2023/01/08 12:50:09;;;;;;;3.75;0.98;;;12.20;79.60;;;;;;5134157;28;20024;-77
2023/01/08 12:52:46;;;;;;;1.75;0.60;;;12.00;79.20;;;;;;5134202;28;20030;-77
2023/01/08 12:55:38;;;;;;;1.67;0.70;;;11.50;79.80;;;;;;5135105;28;20023;-76
2023/01/08 12:58:35;;;;;;;1.95;1.00;;;11.30;81.10;;;;;;5134065;28;20023;-76
2023/01/08 13:01:08;;;;;;;1.10;0.32;;;11.30;82.40;;;;;;5133356;28;20091;-76
2023/01/08 13:03:34;;;;;;;1.05;0.50;;;11.40;81.90;;;;;;5134014;28;20030;-76
2023/01/08 13:06:27;;;;;;;1.38;0.52;;;11.30;81.00;;;;;;5116753;28;20047;-77
2023/01/08 13:08:55;;;;;;;3.00;1.00;;;11.10;81.30;;;;;;5131013;28;20050;-76